PWSweather.com
Personal Weather Stations
Station Observations
133525
French Quarters West Seneca , West Seneca, NY 14224

French Quarters West Seneca West Seneca, NY 14224

Lat: 42.850058, Lon: -78.799754

Elevation: 603

Station Type: Davis Vantage Vue pro2

http://westsenecaweather.com/

High Low Average
Temperature 40.8°F4.9°C 31.9°F-0.1°C 35.2°F1.8°C
Dew Point 39.1°F3.9°C 25.8°F-3.4°C 31.4°F-0.3°C
Winds 13.8 mph 22.2 kmh 1.2 mph 1.9 kmh 7.0 mph ENE11.3 kmh ENE
Wind Gusts 28.8 mph46.3 kmh 3.5 mph5.6 kmh 12.0 mph19.3 kmh
Humidity 95% 76% 86%
Pressure 30.25 in1024.4 mb 29.76 in1007.8 mb -
Precipitation 0.01 in0.3 mm - -
Hour Temp Dew Point Humidity Winds Wind Gusts Pressure Precip Precip Rate Daily Precip Total
12:00 AM 37.5°F3.1°C 35.4°F1.9°C 92% 4.6 mph WNW7.4 kmh WNW 8.1 mph13.0 kmh 29.77 in1008.1 mb - 0.06 in1.5 mm 0.08 in2.0 mm
12:10 AM 37.9°F3.3°C 36.1°F2.3°C 93% 5.8 mph NW9.3 kmh NW 9.2 mph14.8 kmh 29.76 in1007.8 mb - 0.07 in1.8 mm 0.09 in2.3 mm
12:15 AM 38.0°F3.3°C 36.2°F2.3°C 93% 9.2 mph NW14.8 kmh NW 15.0 mph24.1 kmh 29.76 in1007.8 mb - 0.06 in1.5 mm 0.09 in2.3 mm
12:20 AM 38.2°F3.4°C 36.4°F2.4°C 93% 5.8 mph NW9.3 kmh NW 8.1 mph13.0 kmh 29.77 in1008.1 mb - 0.06 in1.5 mm 0.09 in2.3 mm
12:25 AM 38.4°F3.6°C 36.6°F2.6°C 93% 6.9 mph NW11.1 kmh NW 10.4 mph16.7 kmh 29.77 in1008.1 mb - 0.06 in1.5 mm 0.09 in2.3 mm
12:30 AM 38.6°F3.7°C 36.8°F2.7°C 93% 9.2 mph NW14.8 kmh NW 11.5 mph18.5 kmh 29.76 in1007.8 mb - 0.05 in1.3 mm 0.09 in2.3 mm
12:35 AM 38.8°F3.8°C 36.7°F2.6°C 92% 5.8 mph NW9.3 kmh NW 10.4 mph16.7 kmh 29.75 in1007.5 mb - 0.04 in1.0 mm 0.09 in2.3 mm
12:40 AM 38.9°F3.8°C 36.8°F2.7°C 92% 6.9 mph NNW11.1 kmh NNW 11.5 mph18.5 kmh 29.76 in1007.8 mb - 0.03 in0.8 mm 0.09 in2.3 mm
12:45 AM 38.9°F3.8°C 36.8°F2.7°C 92% 8.1 mph NW13.0 kmh NW 13.8 mph22.2 kmh 29.76 in1007.8 mb - 0.02 in0.5 mm 0.09 in2.3 mm
12:50 AM 39.0°F3.9°C 36.9°F2.7°C 92% 4.6 mph NW7.4 kmh NW 10.4 mph16.7 kmh 29.76 in1007.8 mb - 0.02 in0.5 mm 0.09 in2.3 mm
12:55 AM 39.0°F3.9°C 36.8°F2.7°C 92% 5.8 mph NW9.3 kmh NW 10.4 mph16.7 kmh 29.76 in1007.8 mb - 0.02 in0.5 mm 0.10 in2.5 mm
01:00 AM 39.1°F3.9°C 37.0°F2.8°C 92% 5.8 mph NW9.3 kmh NW 6.9 mph11.1 kmh 29.76 in1007.8 mb - 0.02 in0.5 mm 0.51 in13.0 mm
01:10 AM 39.5°F4.2°C 37.6°F3.1°C 93% 6.9 mph NNW11.1 kmh NNW 10.4 mph16.7 kmh 29.76 in1007.8 mb - 0.01 in0.3 mm 0.52 in13.2 mm
01:15 AM 39.6°F4.2°C 37.7°F3.2°C 93% 6.9 mph NW11.1 kmh NW 11.5 mph18.5 kmh 29.76 in1007.8 mb - 0.01 in0.3 mm 0.53 in13.5 mm
01:20 AM 39.6°F4.2°C 37.7°F3.2°C 93% 6.9 mph NNW11.1 kmh NNW 11.5 mph18.5 kmh 29.77 in1008.1 mb - 0.01 in0.3 mm 0.54 in13.7 mm
01:25 AM 39.7°F4.3°C 37.8°F3.2°C 93% 4.6 mph NW7.4 kmh NW 13.8 mph22.2 kmh 29.77 in1008.1 mb - 0.01 in0.3 mm 0.55 in14.0 mm
01:30 AM 39.7°F4.3°C 37.8°F3.2°C 93% 6.9 mph NW11.1 kmh NW 11.5 mph18.5 kmh 29.77 in1008.1 mb - 0.01 in0.3 mm 0.56 in14.2 mm
01:35 AM 39.8°F4.3°C 38.3°F3.5°C 94% 5.8 mph NW9.3 kmh NW 10.4 mph16.7 kmh 29.77 in1008.1 mb - 0.01 in0.3 mm 0.57 in14.5 mm
01:40 AM 39.9°F4.4°C 38.0°F3.3°C 93% 6.9 mph NNW11.1 kmh NNW 10.4 mph16.7 kmh 29.77 in1008.1 mb - 0.01 in0.3 mm 0.58 in14.7 mm
01:45 AM 39.9°F4.4°C 38.0°F3.3°C 93% 6.9 mph NW11.1 kmh NW 10.4 mph16.7 kmh 29.77 in1008.1 mb - 0.01 in0.3 mm 0.59 in15.0 mm
01:50 AM 40.1°F4.5°C 38.5°F3.6°C 94% 6.9 mph NW11.1 kmh NW 11.5 mph18.5 kmh 29.77 in1008.1 mb - 0.01 in0.3 mm 0.60 in15.2 mm
01:55 AM 40.2°F4.6°C 38.6°F3.7°C 94% 6.9 mph NW11.1 kmh NW 11.5 mph18.5 kmh 29.77 in1008.1 mb - 0.01 in0.3 mm 0.61 in15.5 mm
02:00 AM 40.3°F4.6°C 38.7°F3.7°C 94% 8.1 mph NW13.0 kmh NW 9.2 mph14.8 kmh 29.78 in1008.5 mb - 0.00 in0.0 mm 0.61 in15.5 mm
02:10 AM 40.5°F4.7°C 38.6°F3.7°C 93% 6.9 mph NNW11.1 kmh NNW 10.4 mph16.7 kmh 29.78 in1008.5 mb - 0.00 in0.0 mm 0.61 in15.5 mm
02:15 AM 40.6°F4.8°C 38.7°F3.7°C 93% 6.9 mph NNW11.1 kmh NNW 15.0 mph24.1 kmh 29.78 in1008.5 mb - 0.00 in0.0 mm 0.61 in15.5 mm
02:20 AM 40.8°F4.9°C 38.9°F3.8°C 93% 6.9 mph NNW11.1 kmh NNW 11.5 mph18.5 kmh 29.79 in1008.8 mb - 0.00 in0.0 mm 0.61 in15.5 mm
02:25 AM 40.6°F4.8°C 38.8°F3.8°C 93% 6.9 mph NNW11.1 kmh NNW 10.4 mph16.7 kmh 29.79 in1008.8 mb - 0.00 in0.0 mm 0.61 in15.5 mm
02:30 AM 40.5°F4.7°C 38.6°F3.7°C 93% 8.1 mph NNW13.0 kmh NNW 11.5 mph18.5 kmh 29.79 in1008.8 mb - 0.00 in0.0 mm 0.61 in15.5 mm
02:35 AM 40.5°F4.7°C 38.9°F3.8°C 94% 5.8 mph N9.3 kmh N 8.1 mph13.0 kmh 29.79 in1008.8 mb - 0.00 in0.0 mm 0.61 in15.5 mm
02:40 AM 40.4°F4.7°C 38.8°F3.8°C 94% 4.6 mph 7.4 kmh 10.4 mph16.7 kmh 29.80 in1009.1 mb - 0.01 in0.3 mm 0.01 in0.3 mm
02:45 AM 40.2°F4.6°C 38.6°F3.7°C 94% 9.2 mph NNW14.8 kmh NNW 12.7 mph20.4 kmh 29.80 in1009.1 mb - 0.01 in0.3 mm 0.01 in0.3 mm
02:50 AM 40.0°F4.4°C 38.4°F3.6°C 94% 6.9 mph NNW11.1 kmh NNW 13.8 mph22.2 kmh 29.80 in1009.1 mb - 0.01 in0.3 mm 0.01 in0.3 mm
02:55 AM 40.1°F4.5°C 38.5°F3.6°C 94% 6.9 mph NNW11.1 kmh NNW 11.5 mph18.5 kmh 29.80 in1009.1 mb - 0.01 in0.3 mm 0.01 in0.3 mm
03:00 AM 40.0°F4.4°C 38.4°F3.6°C 94% 5.8 mph N9.3 kmh N 13.8 mph22.2 kmh 29.80 in1009.1 mb - 0.01 in0.3 mm 0.01 in0.3 mm
03:10 AM 40.2°F4.6°C 38.9°F3.8°C 95% 9.2 mph N14.8 kmh N 15.0 mph24.1 kmh 29.81 in1009.5 mb - 0.01 in0.3 mm 0.01 in0.3 mm
03:15 AM 40.4°F4.7°C 39.1°F3.9°C 95% 9.2 mph NNW14.8 kmh NNW 13.8 mph22.2 kmh 29.81 in1009.5 mb - 0.01 in0.3 mm 0.01 in0.3 mm
03:20 AM 40.4°F4.7°C 39.1°F3.9°C 95% 6.9 mph 11.1 kmh 11.5 mph18.5 kmh 29.81 in1009.5 mb - 0.01 in0.3 mm 0.01 in0.3 mm
03:25 AM 40.4°F4.7°C 39.0°F3.9°C 95% 6.9 mph NNE11.1 kmh NNE 13.8 mph22.2 kmh 29.82 in1009.8 mb - 0.01 in0.3 mm 0.01 in0.3 mm
03:30 AM 40.1°F4.5°C 38.8°F3.8°C 95% 5.8 mph NNW9.3 kmh NNW 16.1 mph25.9 kmh 29.82 in1009.8 mb - 0.01 in0.3 mm 0.01 in0.3 mm
03:35 AM 39.6°F4.2°C 38.1°F3.4°C 94% 8.1 mph NNE13.0 kmh NNE 11.5 mph18.5 kmh 29.82 in1009.8 mb - 0.01 in0.3 mm 0.01 in0.3 mm
03:40 AM 39.1°F3.9°C 37.6°F3.1°C 94% 8.1 mph N13.0 kmh N 21.9 mph35.2 kmh 29.82 in1009.8 mb - 0.00 in0.0 mm 0.01 in0.3 mm
03:45 AM 38.8°F3.8°C 37.4°F3.0°C 95% 8.1 mph NNE13.0 kmh NNE 16.1 mph25.9 kmh 29.83 in1010.2 mb - 0.00 in0.0 mm 0.01 in0.3 mm
03:50 AM 38.4°F3.6°C 37.1°F2.8°C 95% 8.1 mph NNE13.0 kmh NNE 17.3 mph27.8 kmh 29.83 in1010.2 mb - 0.00 in0.0 mm 0.01 in0.3 mm
03:55 AM 38.2°F3.4°C 36.6°F2.6°C 94% 4.6 mph NE7.4 kmh NE 6.9 mph11.1 kmh 29.84 in1010.5 mb - 0.00 in0.0 mm 0.01 in0.3 mm
04:00 AM 37.8°F3.2°C 36.5°F2.5°C 95% 9.2 mph N14.8 kmh N 11.5 mph18.5 kmh 29.84 in1010.5 mb - 0.00 in0.0 mm 0.01 in0.3 mm
04:10 AM 37.2°F2.9°C 35.9°F2.2°C 95% 10.4 mph N16.7 kmh N 19.6 mph31.5 kmh 29.85 in1010.8 mb - 0.00 in0.0 mm 0.01 in0.3 mm
04:15 AM 37.0°F2.8°C 35.7°F2.1°C 95% 10.4 mph N16.7 kmh N 21.9 mph35.2 kmh 29.85 in1010.8 mb - 0.00 in0.0 mm 0.01 in0.3 mm
04:20 AM 36.7°F2.6°C 35.4°F1.9°C 95% 10.4 mph N16.7 kmh N 20.7 mph33.3 kmh 29.86 in1011.2 mb - 0.00 in0.0 mm 0.01 in0.3 mm
04:25 AM 36.5°F2.5°C 35.2°F1.8°C 95% 6.9 mph NNE11.1 kmh NNE 12.7 mph20.4 kmh 29.86 in1011.2 mb - 0.00 in0.0 mm 0.01 in0.3 mm
04:30 AM 36.3°F2.4°C 35.0°F1.7°C 95% 6.9 mph NNE11.1 kmh NNE 11.5 mph18.5 kmh 29.86 in1011.2 mb - 0.00 in0.0 mm 0.01 in0.3 mm
04:35 AM 36.2°F2.3°C 34.9°F1.6°C 95% 6.9 mph N11.1 kmh N 11.5 mph18.5 kmh 29.86 in1011.2 mb - 0.00 in0.0 mm 0.01 in0.3 mm
04:40 AM 36.2°F2.3°C 34.9°F1.6°C 95% 5.8 mph NNE9.3 kmh NNE 9.2 mph14.8 kmh 29.86 in1011.2 mb - 0.00 in0.0 mm 0.01 in0.3 mm
04:45 AM 36.1°F2.3°C 34.8°F1.6°C 95% 5.8 mph N9.3 kmh N 13.8 mph22.2 kmh 29.86 in1011.2 mb - 0.00 in0.0 mm 0.01 in0.3 mm
04:50 AM 35.9°F2.2°C 34.6°F1.4°C 95% 5.8 mph N9.3 kmh N 12.7 mph20.4 kmh 29.86 in1011.2 mb - 0.00 in0.0 mm 0.01 in0.3 mm
04:55 AM 35.7°F2.1°C 34.4°F1.3°C 95% 3.5 mph N5.6 kmh N 11.5 mph18.5 kmh 29.86 in1011.2 mb - 0.00 in0.0 mm 0.01 in0.3 mm
05:00 AM 35.5°F1.9°C 34.2°F1.2°C 95% 4.6 mph NE7.4 kmh NE 6.9 mph11.1 kmh 29.87 in1011.5 mb - 0.00 in0.0 mm 0.01 in0.3 mm
05:10 AM 35.4°F1.9°C 34.1°F1.2°C 95% 6.9 mph N11.1 kmh N 11.5 mph18.5 kmh 29.87 in1011.5 mb - 0.00 in0.0 mm 0.01 in0.3 mm
05:15 AM 35.3°F1.8°C 34.0°F1.1°C 95% 6.9 mph NE11.1 kmh NE 11.5 mph18.5 kmh 29.87 in1011.5 mb - 0.00 in0.0 mm 0.01 in0.3 mm
05:20 AM 35.4°F1.9°C 34.1°F1.2°C 95% 6.9 mph NNE11.1 kmh NNE 8.1 mph13.0 kmh 29.87 in1011.5 mb - 0.00 in0.0 mm 0.01 in0.3 mm
05:25 AM 35.5°F1.9°C 34.2°F1.2°C 95% 5.8 mph N9.3 kmh N 8.1 mph13.0 kmh 29.88 in1011.9 mb - 0.00 in0.0 mm 0.01 in0.3 mm
05:30 AM 35.6°F2.0°C 34.3°F1.3°C 95% 8.1 mph NNE13.0 kmh NNE 15.0 mph24.1 kmh 29.87 in1011.5 mb - 0.00 in0.0 mm 0.01 in0.3 mm
05:35 AM 35.7°F2.1°C 34.1°F1.2°C 94% 6.9 mph NE11.1 kmh NE 17.3 mph27.8 kmh 29.88 in1011.9 mb - 0.00 in0.0 mm 0.01 in0.3 mm
05:40 AM 35.8°F2.1°C 34.2°F1.2°C 94% 5.8 mph NE9.3 kmh NE 9.2 mph14.8 kmh 29.89 in1012.2 mb - 0.00 in0.0 mm 0.01 in0.3 mm
05:45 AM 35.9°F2.2°C 34.3°F1.3°C 94% 8.1 mph NNE13.0 kmh NNE 13.8 mph22.2 kmh 29.89 in1012.2 mb - 0.00 in0.0 mm 0.01 in0.3 mm
05:50 AM 35.9°F2.2°C 34.0°F1.1°C 93% 5.8 mph N9.3 kmh N 10.4 mph16.7 kmh 29.89 in1012.2 mb - 0.00 in0.0 mm 0.01 in0.3 mm
05:55 AM 35.9°F2.2°C 34.1°F1.2°C 93% 5.8 mph NE9.3 kmh NE 9.2 mph14.8 kmh 29.89 in1012.2 mb - 0.00 in0.0 mm 0.01 in0.3 mm
06:00 AM 35.9°F2.2°C 33.8°F1.0°C 92% 4.6 mph N7.4 kmh N 6.9 mph11.1 kmh 29.89 in1012.2 mb - 0.00 in0.0 mm 0.01 in0.3 mm
06:10 AM 35.9°F2.2°C 33.8°F1.0°C 92% 4.6 mph N7.4 kmh N 9.2 mph14.8 kmh 29.89 in1012.2 mb - 0.00 in0.0 mm 0.01 in0.3 mm
06:15 AM 35.9°F2.2°C 33.8°F1.0°C 92% 6.9 mph N11.1 kmh N 15.0 mph24.1 kmh 29.89 in1012.2 mb - 0.00 in0.0 mm 0.01 in0.3 mm
06:20 AM 35.8°F2.1°C 33.7°F0.9°C 92% 6.9 mph NNE11.1 kmh NNE 9.2 mph14.8 kmh 29.90 in1012.5 mb - 0.00 in0.0 mm 0.01 in0.3 mm
06:25 AM 35.8°F2.1°C 33.4°F0.8°C 91% 5.8 mph N9.3 kmh N 11.5 mph18.5 kmh 29.90 in1012.5 mb - 0.00 in0.0 mm 0.01 in0.3 mm
06:30 AM 35.7°F2.1°C 33.3°F0.7°C 91% 5.8 mph N9.3 kmh N 11.5 mph18.5 kmh 29.91 in1012.9 mb - 0.00 in0.0 mm 0.01 in0.3 mm
06:35 AM 35.7°F2.1°C 33.3°F0.7°C 91% 5.8 mph N9.3 kmh N 8.1 mph13.0 kmh 29.90 in1012.5 mb - 0.00 in0.0 mm 0.01 in0.3 mm
06:40 AM 35.7°F2.1°C 33.3°F0.7°C 91% 6.9 mph NNE11.1 kmh NNE 15.0 mph24.1 kmh 29.91 in1012.9 mb - 0.00 in0.0 mm 0.01 in0.3 mm
06:45 AM 35.7°F2.1°C 33.3°F0.7°C 91% 9.2 mph NNE14.8 kmh NNE 11.5 mph18.5 kmh 29.92 in1013.2 mb - 0.00 in0.0 mm 0.01 in0.3 mm
06:50 AM 35.7°F2.1°C 33.1°F0.6°C 90% 4.6 mph NNE7.4 kmh NNE 10.4 mph16.7 kmh 29.92 in1013.2 mb - 0.00 in0.0 mm 0.01 in0.3 mm
06:55 AM 35.6°F2.0°C 33.0°F0.6°C 90% 8.1 mph N13.0 kmh N 15.0 mph24.1 kmh 29.92 in1013.2 mb - 0.00 in0.0 mm 0.01 in0.3 mm
07:00 AM 35.7°F2.1°C 33.0°F0.6°C 90% 8.1 mph N13.0 kmh N 11.5 mph18.5 kmh 29.92 in1013.2 mb - 0.00 in0.0 mm 0.01 in0.3 mm
07:10 AM 35.7°F2.1°C 32.8°F0.4°C 89% 9.2 mph N14.8 kmh N 12.7 mph20.4 kmh 29.92 in1013.2 mb - 0.00 in0.0 mm 0.01 in0.3 mm
07:15 AM 35.7°F2.1°C 32.8°F0.4°C 89% 8.1 mph N13.0 kmh N 18.4 mph29.6 kmh 29.92 in1013.2 mb - 0.00 in0.0 mm 0.01 in0.3 mm
07:25 AM 35.6°F2.0°C 32.4°F0.2°C 88% 11.5 mph NNE18.5 kmh NNE 18.4 mph29.6 kmh 29.92 in1013.2 mb - 0.00 in0.0 mm 0.01 in0.3 mm
07:30 AM 35.5°F1.9°C 32.3°F0.2°C 88% 6.9 mph NNE11.1 kmh NNE 12.7 mph20.4 kmh 29.93 in1013.5 mb - 0.00 in0.0 mm 0.01 in0.3 mm
07:35 AM 35.5°F1.9°C 32.3°F0.2°C 88% 6.9 mph N11.1 kmh N 12.7 mph20.4 kmh 29.92 in1013.2 mb - 0.00 in0.0 mm 0.01 in0.3 mm
07:45 AM 35.4°F1.9°C 32.2°F0.1°C 88% 8.1 mph NE13.0 kmh NE 11.5 mph18.5 kmh 29.93 in1013.5 mb - 0.00 in0.0 mm 0.01 in0.3 mm
07:50 AM 35.4°F1.9°C 32.2°F0.1°C 88% 8.1 mph NNE13.0 kmh NNE 11.5 mph18.5 kmh 29.93 in1013.5 mb - 0.00 in0.0 mm 0.01 in0.3 mm
08:15 AM 35.2°F1.8°C 32.0°F0.0°C 88% 5.8 mph NNE9.3 kmh NNE 9.2 mph14.8 kmh 29.93 in1013.5 mb - 0.00 in0.0 mm 0.01 in0.3 mm
08:20 AM 35.1°F1.7°C 31.9°F-0.1°C 88% 8.1 mph NE13.0 kmh NE 19.6 mph31.5 kmh 29.94 in1013.9 mb - 0.00 in0.0 mm 0.01 in0.3 mm
08:25 AM 35.1°F1.7°C 31.9°F-0.1°C 88% 11.5 mph NNE18.5 kmh NNE 18.4 mph29.6 kmh 29.94 in1013.9 mb - 0.00 in0.0 mm 0.01 in0.3 mm
08:30 AM 35.0°F1.7°C 31.8°F-0.1°C 88% 8.1 mph NE13.0 kmh NE 10.4 mph16.7 kmh 29.94 in1013.9 mb - 0.00 in0.0 mm 0.01 in0.3 mm
08:35 AM 35.0°F1.7°C 31.8°F-0.1°C 88% 8.1 mph NE13.0 kmh NE 10.4 mph16.7 kmh 29.94 in1013.9 mb - 0.00 in0.0 mm 0.01 in0.3 mm
08:40 AM 34.9°F1.6°C 31.7°F-0.2°C 88% 8.1 mph NNE13.0 kmh NNE 12.7 mph20.4 kmh 29.95 in1014.2 mb - 0.00 in0.0 mm 0.01 in0.3 mm
08:45 AM 34.8°F1.6°C 31.6°F-0.2°C 88% 10.4 mph N16.7 kmh N 17.3 mph27.8 kmh 29.95 in1014.2 mb - 0.00 in0.0 mm 0.01 in0.3 mm
08:50 AM 34.8°F1.6°C 31.6°F-0.2°C 88% 6.9 mph N11.1 kmh N 10.4 mph16.7 kmh 29.95 in1014.2 mb - 0.00 in0.0 mm 0.01 in0.3 mm
08:55 AM 34.8°F1.6°C 31.6°F-0.2°C 88% 10.4 mph N16.7 kmh N 17.3 mph27.8 kmh 29.96 in1014.6 mb - 0.00 in0.0 mm 0.01 in0.3 mm
09:00 AM 34.7°F1.5°C 31.8°F-0.1°C 89% 6.9 mph NNE11.1 kmh NNE 15.0 mph24.1 kmh 29.96 in1014.6 mb - 0.00 in0.0 mm 0.01 in0.3 mm
09:10 AM 34.7°F1.5°C 31.5°F-0.3°C 88% 8.1 mph NE13.0 kmh NE 15.0 mph24.1 kmh 29.97 in1014.9 mb - 0.00 in0.0 mm 0.01 in0.3 mm
09:15 AM 34.7°F1.5°C 31.5°F-0.3°C 88% 8.1 mph NE13.0 kmh NE 15.0 mph24.1 kmh 29.96 in1014.6 mb - 0.00 in0.0 mm 0.01 in0.3 mm
09:20 AM 34.7°F1.5°C 31.5°F-0.3°C 88% 6.9 mph NNE11.1 kmh NNE 9.2 mph14.8 kmh 29.97 in1014.9 mb - 0.00 in0.0 mm 0.01 in0.3 mm
09:25 AM 34.7°F1.5°C 31.5°F-0.3°C 88% 6.9 mph NNE11.1 kmh NNE 8.1 mph13.0 kmh 29.97 in1014.9 mb - 0.00 in0.0 mm 0.01 in0.3 mm
09:30 AM 34.7°F1.5°C 31.5°F-0.3°C 88% 5.8 mph NNE9.3 kmh NNE 6.9 mph11.1 kmh 29.97 in1014.9 mb - 0.00 in0.0 mm 0.01 in0.3 mm
09:35 AM 34.7°F1.5°C 31.5°F-0.3°C 88% 6.9 mph N11.1 kmh N 10.4 mph16.7 kmh 29.97 in1014.9 mb - 0.00 in0.0 mm 0.01 in0.3 mm
09:40 AM 34.7°F1.5°C 31.5°F-0.3°C 88% 5.8 mph NE9.3 kmh NE 12.7 mph20.4 kmh 29.98 in1015.2 mb - 0.00 in0.0 mm 0.01 in0.3 mm
09:45 AM 34.7°F1.5°C 31.5°F-0.3°C 88% 6.9 mph N11.1 kmh N 12.7 mph20.4 kmh 29.98 in1015.2 mb - 0.00 in0.0 mm 0.01 in0.3 mm
09:50 AM 34.8°F1.6°C 31.3°F-0.4°C 87% 6.9 mph NNE11.1 kmh NNE 16.1 mph25.9 kmh 29.98 in1015.2 mb - 0.00 in0.0 mm 0.01 in0.3 mm
09:55 AM 34.9°F1.6°C 31.4°F-0.3°C 87% 5.8 mph N9.3 kmh N 8.1 mph13.0 kmh 29.98 in1015.2 mb - 0.00 in0.0 mm 0.01 in0.3 mm
10:00 AM 34.9°F1.6°C 31.4°F-0.3°C 87% 6.9 mph N11.1 kmh N 11.5 mph18.5 kmh 29.98 in1015.2 mb - 0.00 in0.0 mm 0.01 in0.3 mm
10:10 AM 34.9°F1.6°C 31.4°F-0.3°C 87% 5.8 mph N9.3 kmh N 11.5 mph18.5 kmh 29.99 in1015.6 mb - 0.00 in0.0 mm 0.01 in0.3 mm
10:15 AM 34.9°F1.6°C 31.4°F-0.3°C 87% 9.2 mph N14.8 kmh N 11.5 mph18.5 kmh 29.99 in1015.6 mb - 0.00 in0.0 mm 0.01 in0.3 mm
10:20 AM 34.9°F1.6°C 31.4°F-0.3°C 87% 8.1 mph NE13.0 kmh NE 16.1 mph25.9 kmh 30.00 in1015.9 mb - 0.00 in0.0 mm 0.01 in0.3 mm
10:25 AM 34.8°F1.6°C 31.3°F-0.4°C 87% 8.1 mph NE13.0 kmh NE 8.1 mph13.0 kmh 30.00 in1015.9 mb - 0.00 in0.0 mm 0.01 in0.3 mm
10:30 AM 34.8°F1.6°C 31.3°F-0.4°C 87% 8.1 mph NNE13.0 kmh NNE 13.8 mph22.2 kmh 30.00 in1015.9 mb - 0.00 in0.0 mm 0.01 in0.3 mm
10:35 AM 34.9°F1.6°C 31.4°F-0.3°C 87% 8.1 mph NNE13.0 kmh NNE 13.8 mph22.2 kmh 30.00 in1015.9 mb - 0.00 in0.0 mm 0.01 in0.3 mm
10:40 AM 34.9°F1.6°C 31.4°F-0.3°C 87% 6.9 mph NNE11.1 kmh NNE 11.5 mph18.5 kmh 30.00 in1015.9 mb - 0.00 in0.0 mm 0.01 in0.3 mm
10:45 AM 34.8°F1.6°C 31.3°F-0.4°C 87% 6.9 mph N11.1 kmh N 11.5 mph18.5 kmh 30.00 in1015.9 mb - 0.00 in0.0 mm 0.01 in0.3 mm
10:50 AM 34.8°F1.6°C 31.3°F-0.4°C 87% 6.9 mph N11.1 kmh N 10.4 mph16.7 kmh 30.00 in1015.9 mb - 0.00 in0.0 mm 0.01 in0.3 mm
10:55 AM 34.8°F1.6°C 31.3°F-0.4°C 87% 6.9 mph NE11.1 kmh NE 11.5 mph18.5 kmh 30.01 in1016.3 mb - 0.00 in0.0 mm 0.01 in0.3 mm
11:00 AM 34.8°F1.6°C 31.3°F-0.4°C 87% 6.9 mph NNE11.1 kmh NNE 10.4 mph16.7 kmh 30.01 in1016.3 mb - 0.00 in0.0 mm 0.01 in0.3 mm
11:10 AM 34.8°F1.6°C 31.0°F-0.6°C 86% 5.8 mph N9.3 kmh N 10.4 mph16.7 kmh 30.01 in1016.3 mb - 0.00 in0.0 mm 0.01 in0.3 mm
11:15 AM 34.8°F1.6°C 31.0°F-0.6°C 86% 6.9 mph NNE11.1 kmh NNE 11.5 mph18.5 kmh 30.01 in1016.3 mb - 0.00 in0.0 mm 0.01 in0.3 mm
11:20 AM 34.9°F1.6°C 31.1°F-0.5°C 86% 6.9 mph NNE11.1 kmh NNE 15.0 mph24.1 kmh 30.02 in1016.6 mb - 0.00 in0.0 mm 0.01 in0.3 mm
11:25 AM 34.9°F1.6°C 31.1°F-0.5°C 86% 6.9 mph NNE11.1 kmh NNE 12.7 mph20.4 kmh 30.02 in1016.6 mb - 0.00 in0.0 mm 0.01 in0.3 mm
11:30 AM 35.0°F1.7°C 31.2°F-0.4°C 86% 5.8 mph NNE9.3 kmh NNE 12.7 mph20.4 kmh 30.02 in1016.6 mb - 0.00 in0.0 mm 0.01 in0.3 mm
11:35 AM 35.0°F1.7°C 31.2°F-0.4°C 86% 5.8 mph NNE9.3 kmh NNE 12.7 mph20.4 kmh 30.02 in1016.6 mb - 0.00 in0.0 mm 0.01 in0.3 mm
11:40 AM 35.0°F1.7°C 30.9°F-0.6°C 85% 6.9 mph N11.1 kmh N 15.0 mph24.1 kmh 30.02 in1016.6 mb - 0.00 in0.0 mm 0.01 in0.3 mm
11:45 AM 35.0°F1.7°C 31.0°F-0.6°C 85% 6.9 mph NNE11.1 kmh NNE 10.4 mph16.7 kmh 30.02 in1016.6 mb - 0.00 in0.0 mm 0.01 in0.3 mm
11:50 AM 35.1°F1.7°C 31.0°F-0.6°C 85% 8.1 mph NNE13.0 kmh NNE 13.8 mph22.2 kmh 30.02 in1016.6 mb - 0.00 in0.0 mm 0.01 in0.3 mm
11:55 AM 35.1°F1.7°C 30.8°F-0.7°C 84% 6.9 mph NNE11.1 kmh NNE 12.7 mph20.4 kmh 30.02 in1016.6 mb - 0.00 in0.0 mm 0.01 in0.3 mm
12:00 PM 35.1°F1.7°C 30.8°F-0.7°C 84% 5.8 mph NE9.3 kmh NE 12.7 mph20.4 kmh 30.03 in1016.9 mb - 0.00 in0.0 mm 0.01 in0.3 mm
12:10 PM 35.2°F1.8°C 30.9°F-0.6°C 84% 5.8 mph NNE9.3 kmh NNE 15.0 mph24.1 kmh 30.03 in1016.9 mb - 0.00 in0.0 mm 0.01 in0.3 mm
12:15 PM 35.3°F1.8°C 30.9°F-0.6°C 84% 6.9 mph NNE11.1 kmh NNE 12.7 mph20.4 kmh 30.03 in1016.9 mb - 0.00 in0.0 mm 0.01 in0.3 mm
12:20 PM 35.2°F1.8°C 30.6°F-0.8°C 83% 10.4 mph N16.7 kmh N 13.8 mph22.2 kmh 30.03 in1016.9 mb - 0.00 in0.0 mm 0.01 in0.3 mm
12:25 PM 35.2°F1.8°C 30.3°F-0.9°C 82% 9.2 mph N14.8 kmh N 11.5 mph18.5 kmh 30.03 in1016.9 mb - 0.00 in0.0 mm 0.01 in0.3 mm
12:30 PM 35.3°F1.8°C 30.4°F-0.9°C 82% 10.4 mph N16.7 kmh N 13.8 mph22.2 kmh 30.04 in1017.3 mb - 0.00 in0.0 mm 0.01 in0.3 mm
12:35 PM 35.4°F1.9°C 30.5°F-0.8°C 82% 8.1 mph NNE13.0 kmh NNE 17.3 mph27.8 kmh 30.04 in1017.3 mb - 0.00 in0.0 mm 0.01 in0.3 mm
12:40 PM 35.5°F1.9°C 30.6°F-0.8°C 82% 6.9 mph N11.1 kmh N 16.1 mph25.9 kmh 30.04 in1017.3 mb - 0.00 in0.0 mm 0.01 in0.3 mm
12:45 PM 35.5°F1.9°C 30.3°F-0.9°C 81% 10.4 mph NNE16.7 kmh NNE 12.7 mph20.4 kmh 30.04 in1017.3 mb - 0.00 in0.0 mm 0.01 in0.3 mm
12:50 PM 35.5°F1.9°C 30.2°F-1.0°C 81% 10.4 mph N16.7 kmh N 18.4 mph29.6 kmh 30.04 in1017.3 mb - 0.00 in0.0 mm 0.01 in0.3 mm
12:55 PM 35.6°F2.0°C 30.6°F-0.8°C 82% 4.6 mph NNE7.4 kmh NNE 6.9 mph11.1 kmh 30.04 in1017.3 mb - 0.00 in0.0 mm 0.01 in0.3 mm
01:00 PM 35.7°F2.1°C 30.4°F-0.9°C 81% 5.8 mph N9.3 kmh N 19.6 mph31.5 kmh 30.04 in1017.3 mb - 0.00 in0.0 mm 0.01 in0.3 mm
01:10 PM 35.8°F2.1°C 30.5°F-0.8°C 81% 8.1 mph N13.0 kmh N 19.6 mph31.5 kmh 30.04 in1017.3 mb - 0.00 in0.0 mm 0.01 in0.3 mm
01:15 PM 35.7°F2.1°C 30.4°F-0.9°C 81% 10.4 mph N16.7 kmh N 21.9 mph35.2 kmh 30.04 in1017.3 mb - 0.00 in0.0 mm 0.01 in0.3 mm
01:20 PM 35.7°F2.1°C 30.4°F-0.9°C 81% 10.4 mph N16.7 kmh N 19.6 mph31.5 kmh 30.04 in1017.3 mb - 0.00 in0.0 mm 0.01 in0.3 mm
01:25 PM 35.7°F2.1°C 30.5°F-0.8°C 81% 9.2 mph N14.8 kmh N 18.4 mph29.6 kmh 30.03 in1016.9 mb - 0.00 in0.0 mm 0.01 in0.3 mm
01:30 PM 35.8°F2.1°C 30.3°F-0.9°C 80% 8.1 mph NNE13.0 kmh NNE 10.4 mph16.7 kmh 30.04 in1017.3 mb - 0.00 in0.0 mm 0.01 in0.3 mm
01:35 PM 35.9°F2.2°C 30.3°F-0.9°C 80% 10.4 mph N16.7 kmh N 10.4 mph16.7 kmh 30.04 in1017.3 mb - 0.00 in0.0 mm 0.01 in0.3 mm
01:40 PM 35.9°F2.2°C 30.3°F-0.9°C 80% 12.7 mph NNE20.4 kmh NNE 23.0 mph37.0 kmh 30.04 in1017.3 mb - 0.00 in0.0 mm 0.01 in0.3 mm
01:45 PM 35.7°F2.1°C 30.4°F-0.9°C 81% 10.4 mph N16.7 kmh N 13.8 mph22.2 kmh 30.04 in1017.3 mb - 0.00 in0.0 mm 0.01 in0.3 mm
01:50 PM 35.6°F2.0°C 30.4°F-0.9°C 81% 8.1 mph NNE13.0 kmh NNE 11.5 mph18.5 kmh 30.04 in1017.3 mb - 0.00 in0.0 mm 0.01 in0.3 mm
01:55 PM 35.6°F2.0°C 30.3°F-0.9°C 81% 6.9 mph N11.1 kmh N 13.8 mph22.2 kmh 30.05 in1017.6 mb - 0.00 in0.0 mm 0.01 in0.3 mm
02:00 PM 35.5°F1.9°C 30.5°F-0.8°C 82% 5.8 mph N9.3 kmh N 13.8 mph22.2 kmh 30.05 in1017.6 mb - 0.00 in0.0 mm 0.01 in0.3 mm
02:10 PM 35.5°F1.9°C 30.5°F-0.8°C 82% 9.2 mph N14.8 kmh N 19.6 mph31.5 kmh 30.04 in1017.3 mb - 0.00 in0.0 mm 0.01 in0.3 mm
02:15 PM 35.4°F1.9°C 30.5°F-0.8°C 82% 6.9 mph N11.1 kmh N 11.5 mph18.5 kmh 30.05 in1017.6 mb - 0.00 in0.0 mm 0.01 in0.3 mm
02:20 PM 35.3°F1.8°C 30.4°F-0.9°C 82% 8.1 mph 13.0 kmh 17.3 mph27.8 kmh 30.05 in1017.6 mb - 0.00 in0.0 mm 0.01 in0.3 mm
02:25 PM 35.3°F1.8°C 30.4°F-0.9°C 82% 5.8 mph N9.3 kmh N 12.7 mph20.4 kmh 30.05 in1017.6 mb - 0.00 in0.0 mm 0.01 in0.3 mm
02:30 PM 35.3°F1.8°C 30.3°F-0.9°C 82% 10.4 mph NE16.7 kmh NE 23.0 mph37.0 kmh 30.05 in1017.6 mb - 0.00 in0.0 mm 0.01 in0.3 mm
02:35 PM 35.1°F1.7°C 30.2°F-1.0°C 82% 8.1 mph NNE13.0 kmh NNE 15.0 mph24.1 kmh 30.05 in1017.6 mb - 0.00 in0.0 mm 0.01 in0.3 mm
02:40 PM 35.1°F1.7°C 29.9°F-1.2°C 81% 9.2 mph NNE14.8 kmh NNE 16.1 mph25.9 kmh 30.05 in1017.6 mb - 0.00 in0.0 mm 0.01 in0.3 mm
02:45 PM 35.2°F1.8°C 29.9°F-1.2°C 81% 10.4 mph N16.7 kmh N 16.1 mph25.9 kmh 30.05 in1017.6 mb - 0.00 in0.0 mm 0.01 in0.3 mm
02:50 PM 35.2°F1.8°C 30.0°F-1.1°C 81% 9.2 mph NE14.8 kmh NE 16.1 mph25.9 kmh 30.05 in1017.6 mb - 0.00 in0.0 mm 0.01 in0.3 mm
02:55 PM 35.3°F1.8°C 30.1°F-1.1°C 81% 9.2 mph N14.8 kmh N 17.3 mph27.8 kmh 30.05 in1017.6 mb - 0.00 in0.0 mm 0.01 in0.3 mm
03:00 PM 35.3°F1.8°C 30.1°F-1.1°C 81% 5.8 mph NNE9.3 kmh NNE 17.3 mph27.8 kmh 30.05 in1017.6 mb - 0.00 in0.0 mm 0.01 in0.3 mm
03:10 PM 35.4°F1.9°C 30.1°F-1.1°C 81% 10.4 mph NNE16.7 kmh NNE 17.3 mph27.8 kmh 30.06 in1017.9 mb - 0.00 in0.0 mm 0.01 in0.3 mm
03:15 PM 35.3°F1.8°C 30.1°F-1.1°C 81% 9.2 mph NNE14.8 kmh NNE 17.3 mph27.8 kmh 30.06 in1017.9 mb - 0.00 in0.0 mm 0.01 in0.3 mm
03:20 PM 35.3°F1.8°C 30.1°F-1.1°C 81% 9.2 mph NNE14.8 kmh NNE 16.1 mph25.9 kmh 30.06 in1017.9 mb - 0.00 in0.0 mm 0.01 in0.3 mm
03:25 PM 35.3°F1.8°C 30.1°F-1.1°C 81% 9.2 mph N14.8 kmh N 21.9 mph35.2 kmh 30.06 in1017.9 mb - 0.00 in0.0 mm 0.01 in0.3 mm
03:30 PM 35.3°F1.8°C 30.1°F-1.1°C 81% 8.1 mph NNE13.0 kmh NNE 21.9 mph35.2 kmh 30.06 in1017.9 mb - 0.00 in0.0 mm 0.01 in0.3 mm
03:35 PM 35.3°F1.8°C 30.1°F-1.1°C 81% 10.4 mph NE16.7 kmh NE 19.6 mph31.5 kmh 30.06 in1017.9 mb - 0.00 in0.0 mm 0.01 in0.3 mm
03:40 PM 35.5°F1.9°C 30.2°F-1.0°C 81% 9.2 mph N14.8 kmh N 13.8 mph22.2 kmh 30.06 in1017.9 mb - 0.00 in0.0 mm 0.01 in0.3 mm
03:45 PM 35.8°F2.1°C 30.3°F-0.9°C 80% 11.5 mph NE18.5 kmh NE 28.8 mph46.3 kmh 30.06 in1017.9 mb - 0.00 in0.0 mm 0.01 in0.3 mm
03:50 PM 36.2°F2.3°C 30.0°F-1.1°C 78% 9.2 mph NNE14.8 kmh NNE 15.0 mph24.1 kmh 30.06 in1017.9 mb - 0.00 in0.0 mm 0.01 in0.3 mm
03:55 PM 36.4°F2.4°C 30.2°F-1.0°C 78% 11.5 mph NE18.5 kmh NE 13.8 mph22.2 kmh 30.07 in1018.3 mb - 0.00 in0.0 mm 0.01 in0.3 mm
04:00 PM 36.4°F2.4°C 30.5°F-0.8°C 79% 9.2 mph NNE14.8 kmh NNE 19.6 mph31.5 kmh 30.07 in1018.3 mb - 0.00 in0.0 mm 0.01 in0.3 mm
04:10 PM 36.4°F2.4°C 29.9°F-1.2°C 77% 13.8 mph NNE22.2 kmh NNE 18.4 mph29.6 kmh 30.07 in1018.3 mb - 0.00 in0.0 mm 0.01 in0.3 mm
04:15 PM 36.4°F2.4°C 29.6°F-1.3°C 76% 12.7 mph NE20.4 kmh NE 20.7 mph33.3 kmh 30.08 in1018.6 mb - 0.00 in0.0 mm 0.01 in0.3 mm
04:20 PM 36.1°F2.3°C 29.3°F-1.5°C 76% 11.5 mph NNE18.5 kmh NNE 16.1 mph25.9 kmh 30.08 in1018.6 mb - 0.00 in0.0 mm 0.01 in0.3 mm
04:25 PM 35.7°F2.1°C 29.2°F-1.6°C 77% 10.4 mph NNE16.7 kmh NNE 21.9 mph35.2 kmh 30.08 in1018.6 mb - 0.00 in0.0 mm 0.01 in0.3 mm
04:30 PM 35.8°F2.1°C 29.3°F-1.5°C 77% 6.9 mph NE11.1 kmh NE 12.7 mph20.4 kmh 30.08 in1018.6 mb - 0.00 in0.0 mm 0.01 in0.3 mm
04:35 PM 36.3°F2.4°C 29.5°F-1.4°C 76% 6.9 mph NNE11.1 kmh NNE 13.8 mph22.2 kmh 30.08 in1018.6 mb - 0.00 in0.0 mm 0.01 in0.3 mm
04:40 PM 36.2°F2.3°C 29.4°F-1.4°C 76% 11.5 mph NE18.5 kmh NE 25.3 mph40.7 kmh 30.09 in1019.0 mb - 0.00 in0.0 mm 0.01 in0.3 mm
04:45 PM 36.3°F2.4°C 29.8°F-1.2°C 77% 9.2 mph NNE14.8 kmh NNE 18.4 mph29.6 kmh 30.08 in1018.6 mb - 0.00 in0.0 mm 0.01 in0.3 mm
04:50 PM 36.1°F2.3°C 29.2°F-1.6°C 76% 10.4 mph NE16.7 kmh NE 19.6 mph31.5 kmh 30.09 in1019.0 mb - 0.00 in0.0 mm 0.01 in0.3 mm
04:55 PM 35.7°F2.1°C 29.2°F-1.6°C 77% 9.2 mph NE14.8 kmh NE 19.6 mph31.5 kmh 30.09 in1019.0 mb - 0.00 in0.0 mm 0.01 in0.3 mm
05:00 PM 35.8°F2.1°C 29.3°F-1.5°C 77% 8.1 mph NE13.0 kmh NE 15.0 mph24.1 kmh 30.08 in1018.6 mb - 0.00 in0.0 mm 0.01 in0.3 mm
05:35 PM 34.9°F1.6°C 29.4°F-1.4°C 80% 8.1 mph N13.0 kmh N 15.0 mph24.1 kmh 30.10 in1019.3 mb - 0.00 in0.0 mm 0.01 in0.3 mm
05:40 PM 34.7°F1.5°C 29.2°F-1.6°C 80% 6.9 mph NE11.1 kmh NE 11.5 mph18.5 kmh 30.09 in1019.0 mb - 0.00 in0.0 mm 0.01 in0.3 mm
05:45 PM 34.7°F1.5°C 29.2°F-1.6°C 80% 8.1 mph NNE13.0 kmh NNE 9.2 mph14.8 kmh 30.10 in1019.3 mb - 0.00 in0.0 mm 0.01 in0.3 mm
05:50 PM 34.6°F1.4°C 29.1°F-1.6°C 80% 5.8 mph N9.3 kmh N 11.5 mph18.5 kmh 30.10 in1019.3 mb - 0.00 in0.0 mm 0.01 in0.3 mm
05:55 PM 34.4°F1.3°C 28.9°F-1.7°C 80% 8.1 mph NNE13.0 kmh NNE 15.0 mph24.1 kmh 30.10 in1019.3 mb - 0.00 in0.0 mm 0.01 in0.3 mm
06:00 PM 34.3°F1.3°C 28.8°F-1.8°C 80% 5.8 mph NNE9.3 kmh NNE 6.9 mph11.1 kmh 30.10 in1019.3 mb - 0.00 in0.0 mm 0.01 in0.3 mm
06:10 PM 34.2°F1.2°C 29.0°F-1.7°C 81% 5.8 mph NE9.3 kmh NE 11.5 mph18.5 kmh 30.11 in1019.6 mb - 0.00 in0.0 mm 0.01 in0.3 mm
06:15 PM 34.0°F1.1°C 28.8°F-1.8°C 81% 8.1 mph N13.0 kmh N 11.5 mph18.5 kmh 30.11 in1019.6 mb - 0.00 in0.0 mm 0.01 in0.3 mm
06:20 PM 33.9°F1.1°C 28.7°F-1.8°C 81% 4.6 mph NNE7.4 kmh NNE 8.1 mph13.0 kmh 30.12 in1020.0 mb - 0.00 in0.0 mm 0.01 in0.3 mm
06:25 PM 33.7°F0.9°C 28.8°F-1.8°C 82% 6.9 mph N11.1 kmh N 11.5 mph18.5 kmh 30.12 in1020.0 mb - 0.00 in0.0 mm 0.01 in0.3 mm
06:30 PM 33.6°F0.9°C 28.7°F-1.8°C 82% 5.8 mph N9.3 kmh N 10.4 mph16.7 kmh 30.13 in1020.3 mb - 0.00 in0.0 mm 0.01 in0.3 mm
06:35 PM 33.5°F0.8°C 28.6°F-1.9°C 82% 8.1 mph NNE13.0 kmh NNE 11.5 mph18.5 kmh 30.13 in1020.3 mb - 0.00 in0.0 mm 0.01 in0.3 mm
06:40 PM 33.4°F0.8°C 28.8°F-1.8°C 83% 6.9 mph NE11.1 kmh NE 17.3 mph27.8 kmh 30.13 in1020.3 mb - 0.00 in0.0 mm 0.01 in0.3 mm
06:45 PM 33.3°F0.7°C 28.7°F-1.8°C 83% 4.6 mph NE7.4 kmh NE 5.8 mph9.3 kmh 30.14 in1020.7 mb - 0.00 in0.0 mm 0.01 in0.3 mm
06:50 PM 33.3°F0.7°C 28.7°F-1.8°C 83% 5.8 mph N9.3 kmh N 11.5 mph18.5 kmh 30.14 in1020.7 mb - 0.00 in0.0 mm 0.01 in0.3 mm
06:55 PM 33.2°F0.7°C 28.6°F-1.9°C 83% 5.8 mph N9.3 kmh N 9.2 mph14.8 kmh 30.14 in1020.7 mb - 0.00 in0.0 mm 0.01 in0.3 mm
07:00 PM 33.1°F0.6°C 28.5°F-1.9°C 83% 6.9 mph NE11.1 kmh NE 15.0 mph24.1 kmh 30.14 in1020.7 mb - 0.00 in0.0 mm 0.01 in0.3 mm
07:10 PM 33.1°F0.6°C 28.5°F-1.9°C 83% 4.6 mph NE7.4 kmh NE 10.4 mph16.7 kmh 30.14 in1020.7 mb - 0.00 in0.0 mm 0.01 in0.3 mm
07:15 PM 33.0°F0.6°C 28.4°F-2.0°C 83% 8.1 mph N13.0 kmh N 11.5 mph18.5 kmh 30.14 in1020.7 mb - 0.00 in0.0 mm 0.01 in0.3 mm
07:20 PM 33.0°F0.6°C 28.4°F-2.0°C 83% 6.9 mph NE11.1 kmh NE 11.5 mph18.5 kmh 30.14 in1020.7 mb - 0.00 in0.0 mm 0.01 in0.3 mm
07:25 PM 33.1°F0.6°C 28.2°F-2.1°C 82% 6.9 mph N11.1 kmh N 11.5 mph18.5 kmh 30.15 in1021.0 mb - 0.00 in0.0 mm 0.01 in0.3 mm
07:30 PM 33.1°F0.6°C 28.2°F-2.1°C 82% 6.9 mph NNE11.1 kmh NNE 10.4 mph16.7 kmh 30.16 in1021.3 mb - 0.00 in0.0 mm 0.01 in0.3 mm
07:35 PM 33.1°F0.6°C 28.2°F-2.1°C 82% 4.6 mph NE7.4 kmh NE 6.9 mph11.1 kmh 30.16 in1021.3 mb - 0.00 in0.0 mm 0.01 in0.3 mm
07:40 PM 33.0°F0.6°C 28.4°F-2.0°C 83% 5.8 mph N9.3 kmh N 8.1 mph13.0 kmh 30.16 in1021.3 mb - 0.00 in0.0 mm 0.01 in0.3 mm
07:45 PM 32.9°F0.5°C 28.3°F-2.1°C 83% 6.9 mph N11.1 kmh N 10.4 mph16.7 kmh 30.16 in1021.3 mb - 0.00 in0.0 mm 0.01 in0.3 mm
07:50 PM 32.9°F0.5°C 28.3°F-2.1°C 83% 5.8 mph NE9.3 kmh NE 12.7 mph20.4 kmh 30.16 in1021.3 mb - 0.00 in0.0 mm 0.01 in0.3 mm
07:55 PM 32.9°F0.5°C 28.3°F-2.1°C 83% 6.9 mph N11.1 kmh N 11.5 mph18.5 kmh 30.17 in1021.7 mb - 0.00 in0.0 mm 0.01 in0.3 mm
08:00 PM 32.9°F0.5°C 28.3°F-2.1°C 83% 5.8 mph NE9.3 kmh NE 13.8 mph22.2 kmh 30.17 in1021.7 mb - 0.00 in0.0 mm 0.01 in0.3 mm
08:10 PM 32.8°F0.4°C 28.2°F-2.1°C 83% 4.6 mph NNE7.4 kmh NNE 8.1 mph13.0 kmh 30.17 in1021.7 mb - 0.00 in0.0 mm 0.01 in0.3 mm
08:15 PM 32.8°F0.4°C 28.2°F-2.1°C 83% 5.8 mph ENE9.3 kmh ENE 11.5 mph18.5 kmh 30.17 in1021.7 mb - 0.00 in0.0 mm 0.01 in0.3 mm
08:20 PM 32.8°F0.4°C 28.2°F-2.1°C 83% 5.8 mph NNE9.3 kmh NNE 9.2 mph14.8 kmh 30.18 in1022.0 mb - 0.00 in0.0 mm 0.01 in0.3 mm
08:25 PM 32.8°F0.4°C 28.2°F-2.1°C 83% 4.6 mph NE7.4 kmh NE 6.9 mph11.1 kmh 30.18 in1022.0 mb - 0.00 in0.0 mm 0.01 in0.3 mm
08:30 PM 32.7°F0.4°C 28.1°F-2.2°C 83% 4.6 mph N7.4 kmh N 9.2 mph14.8 kmh 30.18 in1022.0 mb - 0.00 in0.0 mm 0.01 in0.3 mm
08:35 PM 32.7°F0.4°C 28.1°F-2.2°C 83% 4.6 mph N7.4 kmh N 8.1 mph13.0 kmh 30.18 in1022.0 mb - 0.00 in0.0 mm 0.01 in0.3 mm
08:40 PM 32.6°F0.3°C 28.3°F-2.1°C 84% 5.8 mph ENE9.3 kmh ENE 11.5 mph18.5 kmh 30.18 in1022.0 mb - 0.00 in0.0 mm 0.01 in0.3 mm
08:45 PM 32.6°F0.3°C 28.3°F-2.1°C 84% 5.8 mph NNE9.3 kmh NNE 9.2 mph14.8 kmh 30.18 in1022.0 mb - 0.00 in0.0 mm 0.01 in0.3 mm
08:50 PM 32.6°F0.3°C 28.3°F-2.1°C 84% 3.5 mph NNE5.6 kmh NNE 4.6 mph7.4 kmh 30.18 in1022.0 mb - 0.00 in0.0 mm 0.01 in0.3 mm
08:55 PM 32.6°F0.3°C 28.3°F-2.1°C 84% 5.8 mph NE9.3 kmh NE 11.5 mph18.5 kmh 30.18 in1022.0 mb - 0.00 in0.0 mm 0.01 in0.3 mm
09:00 PM 32.5°F0.3°C 28.2°F-2.1°C 84% 3.5 mph N5.6 kmh N 3.5 mph5.6 kmh 30.18 in1022.0 mb - 0.00 in0.0 mm 0.01 in0.3 mm
09:10 PM 32.4°F0.2°C 28.4°F-2.0°C 85% 4.6 mph NE7.4 kmh NE 6.9 mph11.1 kmh 30.18 in1022.0 mb - 0.00 in0.0 mm 0.01 in0.3 mm
09:15 PM 32.3°F0.2°C 28.3°F-2.1°C 85% 3.5 mph N5.6 kmh N 5.8 mph9.3 kmh 30.18 in1022.0 mb - 0.00 in0.0 mm 0.01 in0.3 mm
09:20 PM 32.4°F0.2°C 28.4°F-2.0°C 85% 3.5 mph NNE5.6 kmh NNE 3.5 mph5.6 kmh 30.18 in1022.0 mb - 0.00 in0.0 mm 0.01 in0.3 mm
09:25 PM 32.5°F0.3°C 28.5°F-1.9°C 85% 4.6 mph NE7.4 kmh NE 9.2 mph14.8 kmh 30.18 in1022.0 mb - 0.00 in0.0 mm 0.01 in0.3 mm
09:30 PM 32.5°F0.3°C 28.5°F-1.9°C 85% 4.6 mph NE7.4 kmh NE 9.2 mph14.8 kmh 30.18 in1022.0 mb - 0.00 in0.0 mm 0.01 in0.3 mm
09:35 PM 32.6°F0.3°C 28.6°F-1.9°C 85% 2.3 mph NNE3.7 kmh NNE 3.5 mph5.6 kmh 30.18 in1022.0 mb - 0.00 in0.0 mm 0.01 in0.3 mm
09:40 PM 32.7°F0.4°C 28.7°F-1.8°C 85% 5.8 mph NE9.3 kmh NE 9.2 mph14.8 kmh 30.18 in1022.0 mb - 0.00 in0.0 mm 0.01 in0.3 mm
09:45 PM 32.8°F0.4°C 28.8°F-1.8°C 85% 2.3 mph NE3.7 kmh NE 3.5 mph5.6 kmh 30.19 in1022.4 mb - 0.00 in0.0 mm 0.01 in0.3 mm
09:50 PM 32.8°F0.4°C 28.8°F-1.8°C 85% 3.5 mph NNE5.6 kmh NNE 4.6 mph7.4 kmh 30.20 in1022.7 mb - 0.00 in0.0 mm 0.01 in0.3 mm
09:55 PM 32.9°F0.5°C 28.9°F-1.7°C 85% 4.6 mph NE7.4 kmh NE 11.5 mph18.5 kmh 30.20 in1022.7 mb - 0.00 in0.0 mm 0.01 in0.3 mm
10:00 PM 32.9°F0.5°C 28.9°F-1.7°C 85% 6.9 mph NE11.1 kmh NE 8.1 mph13.0 kmh 30.19 in1022.4 mb - 0.00 in0.0 mm 0.01 in0.3 mm
10:10 PM 32.9°F0.5°C 28.9°F-1.7°C 85% 6.9 mph NE11.1 kmh NE 12.7 mph20.4 kmh 30.20 in1022.7 mb - 0.00 in0.0 mm 0.01 in0.3 mm
10:15 PM 33.0°F0.6°C 28.9°F-1.7°C 85% 5.8 mph NE9.3 kmh NE 8.1 mph13.0 kmh 30.19 in1022.4 mb - 0.00 in0.0 mm 0.01 in0.3 mm
10:20 PM 32.9°F0.5°C 28.9°F-1.7°C 85% 5.8 mph NE9.3 kmh NE 10.4 mph16.7 kmh 30.19 in1022.4 mb - 0.00 in0.0 mm 0.01 in0.3 mm
10:25 PM 32.9°F0.5°C 28.9°F-1.7°C 85% 5.8 mph ENE9.3 kmh ENE 6.9 mph11.1 kmh 30.20 in1022.7 mb - 0.00 in0.0 mm 0.01 in0.3 mm
10:30 PM 32.9°F0.5°C 28.9°F-1.7°C 85% 5.8 mph NE9.3 kmh NE 10.4 mph16.7 kmh 30.20 in1022.7 mb - 0.00 in0.0 mm 0.01 in0.3 mm
10:35 PM 32.7°F0.4°C 29.0°F-1.7°C 86% 4.6 mph ENE7.4 kmh ENE 8.1 mph13.0 kmh 30.20 in1022.7 mb - 0.00 in0.0 mm 0.01 in0.3 mm
10:40 PM 32.6°F0.3°C 28.9°F-1.7°C 86% 4.6 mph NE7.4 kmh NE 5.8 mph9.3 kmh 30.20 in1022.7 mb - 0.00 in0.0 mm 0.01 in0.3 mm
10:45 PM 32.6°F0.3°C 28.9°F-1.7°C 86% 3.5 mph NE5.6 kmh NE 4.6 mph7.4 kmh 30.21 in1023.0 mb - 0.00 in0.0 mm 0.01 in0.3 mm
10:50 PM 32.5°F0.3°C 28.8°F-1.8°C 86% 2.3 mph NE3.7 kmh NE 3.5 mph5.6 kmh 30.21 in1023.0 mb - 0.00 in0.0 mm 0.01 in0.3 mm
10:55 PM 32.4°F0.2°C 28.7°F-1.8°C 86% 4.6 mph NNE7.4 kmh NNE 4.6 mph7.4 kmh 30.21 in1023.0 mb - 0.00 in0.0 mm 0.01 in0.3 mm
11:00 PM 32.3°F0.2°C 28.5°F-1.9°C 86% 3.5 mph ENE5.6 kmh ENE 3.5 mph5.6 kmh 30.21 in1023.0 mb - 0.00 in0.0 mm 0.01 in0.3 mm
11:10 PM 32.1°F0.1°C 28.7°F-1.8°C 87% 2.3 mph ENE3.7 kmh ENE 3.5 mph5.6 kmh 30.21 in1023.0 mb - 0.00 in0.0 mm 0.01 in0.3 mm
11:15 PM 32.0°F0.0°C 28.6°F-1.9°C 87% 2.3 mph NE3.7 kmh NE 3.5 mph5.6 kmh 30.21 in1023.0 mb - 0.00 in0.0 mm 0.01 in0.3 mm
11:20 PM 32.0°F0.0°C 28.6°F-1.9°C 87% 3.5 mph NE5.6 kmh NE 5.8 mph9.3 kmh 30.21 in1023.0 mb - 0.00 in0.0 mm 0.01 in0.3 mm
11:25 PM 32.1°F0.1°C 28.4°F-2.0°C 86% 2.3 mph ENE3.7 kmh ENE 4.6 mph7.4 kmh 30.22 in1023.4 mb - 0.00 in0.0 mm 0.01 in0.3 mm
11:30 PM 32.2°F0.1°C 28.5°F-1.9°C 86% 2.3 mph E3.7 kmh E 3.5 mph5.6 kmh 30.22 in1023.4 mb - 0.00 in0.0 mm 0.01 in0.3 mm
11:35 PM 32.3°F0.2°C 28.6°F-1.9°C 86% 3.5 mph E5.6 kmh E 4.6 mph7.4 kmh 30.22 in1023.4 mb - 0.00 in0.0 mm 0.01 in0.3 mm
11:40 PM 32.4°F0.2°C 28.4°F-2.0°C 85% 1.2 mph NE1.9 kmh NE 3.5 mph5.6 kmh 30.23 in1023.7 mb - 0.00 in0.0 mm 0.01 in0.3 mm
11:45 PM 32.4°F0.2°C 28.1°F-2.2°C 84% 2.3 mph ENE3.7 kmh ENE 4.6 mph7.4 kmh 30.23 in1023.7 mb - 0.00 in0.0 mm 0.01 in0.3 mm
11:50 PM 32.5°F0.3°C 27.9°F-2.3°C 83% 4.6 mph E7.4 kmh E 8.1 mph13.0 kmh 30.23 in1023.7 mb - 0.00 in0.0 mm 0.01 in0.3 mm
11:55 PM 32.6°F0.3°C 27.7°F-2.4°C 82% 3.5 mph ENE5.6 kmh ENE 4.6 mph7.4 kmh 30.23 in1023.7 mb - 0.00 in0.0 mm 0.01 in0.3 mm